Time;durP1;ratioP1;P1;durP2;ratioP2;P2;SDS_P1;SDS_P2;PMS_P1;PMS_P2;Temp;Humidity;BMP_temperature;BMP_pressure;BME280_temperature;BME280_humidity;BME280_pressure;Samples;Min_cycle;Max_cycle;Signal;HPM_P1;HPM_P2
2023/10/27 00:00:06;;;;;;;;;;;13.10;99.90;;;;;;5114025;28;20286;-84
2023/10/27 00:02:36;;;;;;;;;;;13.10;99.90;;;;;;5119508;27;20021;-84
2023/10/27 00:05:03;;;;;;;;;;;13.10;99.90;;;;;;5117050;27;20017;-85
2023/10/27 00:07:29;;;;;;;;;;;13.00;99.90;;;;;;5116272;27;20084;-85
2023/10/27 00:09:58;;;;;;;;;;;13.00;99.90;;;;;;5115039;27;20009;-85
2023/10/27 00:12:25;;;;;;;;;;;13.00;99.90;;;;;;5117249;28;19990;-84
2023/10/27 00:14:51;;;;;;;;;;;13.00;99.90;;;;;;5114932;27;20080;-85
2023/10/27 00:17:18;;;;;;;;;;;13.00;99.90;;;;;;5117233;27;19997;-84
2023/10/27 00:19:45;;;;;;;;;;;12.90;99.90;;;;;;5112903;27;19974;-84
2023/10/27 00:22:11;;;;;;;;;;;13.00;99.90;;;;;;5117523;27;20051;-85
2023/10/27 00:24:38;;;;;;;;;;;13.00;99.90;;;;;;5137214;27;19994;-84
2023/10/27 00:27:07;;;;;;;;;;;13.00;99.90;;;;;;5117910;27;20518;-83
2023/10/27 00:29:33;;;;;;;;;;;13.00;99.90;;;;;;5118298;27;20442;-84
2023/10/27 00:32:00;;;;;;;;;;;12.90;99.90;;;;;;5103649;27;20073;-85
2023/10/27 00:34:27;;;;;;;;;;;13.00;99.90;;;;;;5118833;27;19978;-83
2023/10/27 00:36:53;;;;;;;;;;;12.90;99.90;;;;;;5118637;27;19986;-84
2023/10/27 00:39:20;;;;;;;;;;;12.90;99.90;;;;;;5114274;27;20035;-85
2023/10/27 00:41:46;;;;;;;;;;;12.90;99.90;;;;;;5122898;27;19991;-86
2023/10/27 00:44:15;;;;;;;;;;;12.90;99.90;;;;;;5119142;27;20081;-84
2023/10/27 00:46:41;;;;;;;;;;;12.90;99.90;;;;;;5119664;27;19994;-85
2023/10/27 00:49:08;;;;;;;;;;;12.90;99.90;;;;;;5119505;27;19979;-83
2023/10/27 00:51:35;;;;;;;;;;;12.90;99.90;;;;;;5118155;27;20404;-84
2023/10/27 00:54:01;;;;;;;;;;;12.90;99.90;;;;;;5123841;27;19986;-85
2023/10/27 00:56:28;;;;;;;;;;;12.90;99.90;;;;;;5120817;27;20093;-85
2023/10/27 00:58:55;;;;;;;;;;;12.90;99.90;;;;;;5118537;27;19990;-84
2023/10/27 01:01:25;;;;;;;;;;;12.90;99.90;;;;;;5117309;27;20467;-85
2023/10/27 01:03:51;;;;;;;;;;;12.80;99.90;;;;;;5117360;27;20005;-85
2023/10/27 01:06:18;;;;;;;;;;;12.90;99.90;;;;;;5121292;27;20010;-85
2023/10/27 01:08:45;;;;;;;;;;;12.80;99.90;;;;;;5124382;27;19974;-85
2023/10/27 01:11:11;;;;;;;;;;;12.80;99.90;;;;;;5114302;27;20448;-86
2023/10/27 01:13:38;;;;;;;;;;;12.80;99.90;;;;;;5119123;27;20393;-86
2023/10/27 01:16:05;;;;;;;;;;;12.80;99.90;;;;;;5118399;27;20416;-85
2023/10/27 01:18:33;;;;;;;;;;;12.80;99.90;;;;;;5120065;27;19981;-84
2023/10/27 01:21:00;;;;;;;;;;;12.80;99.90;;;;;;5119426;27;20462;-86
2023/10/27 01:23:28;;;;;;;;;;;12.80;99.90;;;;;;5121630;27;19991;-85
2023/10/27 01:25:54;;;;;;;;;;;12.80;99.90;;;;;;5122349;27;19994;-85
2023/10/27 01:28:21;;;;;;;;;;;12.80;99.90;;;;;;5118041;27;20466;-84
2023/10/27 01:30:49;;;;;;;;;;;12.80;99.90;;;;;;5121855;27;20002;-85
2023/10/27 01:33:16;;;;;;;;;;;12.80;99.90;;;;;;5123676;27;20362;-84
2023/10/27 01:35:42;;;;;;;;;;;12.70;99.90;;;;;;5126704;27;19979;-85
2023/10/27 01:38:09;;;;;;;;;;;12.70;99.90;;;;;;5122110;27;19989;-87
2023/10/27 01:40:37;;;;;;;;;;;12.80;99.90;;;;;;5124264;27;19982;-85
2023/10/27 01:43:03;;;;;;;;;;;12.70;99.90;;;;;;5122271;27;20674;-84
2023/10/27 01:45:30;;;;;;;;;;;12.70;99.90;;;;;;5123290;27;20896;-85
2023/10/27 01:47:57;;;;;;;;;;;12.70;99.90;;;;;;5118903;27;20475;-84
2023/10/27 01:50:23;;;;;;;;;;;12.70;99.90;;;;;;5126981;27;20518;-87
2023/10/27 01:52:50;;;;;;;;;;;12.70;99.90;;;;;;5125741;27;19997;-85
2023/10/27 01:55:16;;;;;;;;;;;12.60;99.90;;;;;;5123935;27;19982;-83
2023/10/27 01:57:44;;;;;;;;;;;12.70;99.90;;;;;;5117632;27;20062;-84
2023/10/27 02:00:12;;;;;;;;;;;12.70;99.90;;;;;;5119340;27;19979;-85
2023/10/27 02:02:39;;;;;;;;;;;12.60;99.90;;;;;;5118546;27;20005;-86
2023/10/27 02:05:06;;;;;;;;;;;12.60;99.90;;;;;;5115678;27;19991;-86
2023/10/27 02:07:32;;;;;;;;;;;12.60;99.90;;;;;;5122504;27;20471;-85
2023/10/27 02:09:59;;;;;;;;;;;12.60;99.90;;;;;;5113713;27;19996;-85
2023/10/27 02:12:26;;;;;;;;;;;12.60;99.90;;;;;;5121413;27;19987;-85
2023/10/27 02:14:54;;;;;;;;;;;12.60;99.90;;;;;;5129165;27;19982;-82
2023/10/27 02:17:20;;;;;;;;;;;12.60;99.90;;;;;;5125300;27;20463;-85
2023/10/27 02:19:48;;;;;;;;;;;12.50;99.90;;;;;;5125895;27;20741;-86
2023/10/27 02:22:14;;;;;;;;;;;12.60;99.90;;;;;;5117761;27;20682;-85
2023/10/27 02:24:41;;;;;;;;;;;12.60;99.90;;;;;;5121813;27;20047;-86
2023/10/27 02:27:08;;;;;;;;;;;12.60;99.90;;;;;;5116390;27;19978;-84
2023/10/27 02:29:34;;;;;;;;;;;12.50;99.90;;;;;;5120247;27;19983;-87
2023/10/27 02:32:02;;;;;;;;;;;12.60;99.90;;;;;;5121474;27;19999;-84
2023/10/27 02:34:29;;;;;;;;;;;12.50;99.90;;;;;;5118961;27;20478;-85
2023/10/27 02:36:56;;;;;;;;;;;12.50;99.90;;;;;;5125423;27;20017;-85
2023/10/27 02:39:22;;;;;;;;;;;12.50;99.90;;;;;;5124557;27;19978;-85
2023/10/27 02:41:49;;;;;;;;;;;12.60;99.90;;;;;;5119173;27;19994;-83
2023/10/27 02:44:15;;;;;;;;;;;12.50;99.90;;;;;;5126139;27;20494;-85
2023/10/27 02:46:42;;;;;;;;;;;12.50;99.90;;;;;;5121480;27;20466;-85
2023/10/27 02:49:10;;;;;;;;;;;12.50;99.90;;;;;;5126304;27;19986;-85
2023/10/27 02:51:37;;;;;;;;;;;12.40;99.90;;;;;;5119744;27;19982;-86
2023/10/27 02:54:04;;;;;;;;;;;12.50;99.90;;;;;;5119228;27;19978;-85
2023/10/27 02:56:30;;;;;;;;;;;12.50;99.90;;;;;;5120730;27;20053;-85
2023/10/27 02:58:57;;;;;;;;;;;12.50;99.90;;;;;;5118299;27;20097;-85
2023/10/27 03:01:23;;;;;;;;;;;12.50;99.90;;;;;;5120762;27;20001;-85
2023/10/27 03:03:50;;;;;;;;;;;12.50;99.90;;;;;;5119083;27;19989;-84
2023/10/27 03:06:18;;;;;;;;;;;12.50;99.90;;;;;;5109597;27;20486;-86
2023/10/27 03:08:45;;;;;;;;;;;12.40;99.90;;;;;;5119444;27;20440;-86
2023/10/27 03:11:12;;;;;;;;;;;12.50;99.90;;;;;;5111571;27;20725;-85
2023/10/27 03:13:38;;;;;;;;;;;12.50;99.90;;;;;;5119373;27;19990;-84
2023/10/27 03:16:05;;;;;;;;;;;12.40;99.90;;;;;;5118910;27;20006;-84
2023/10/27 03:18:32;;;;;;;;;;;12.40;99.90;;;;;;5114411;27;20057;-85
2023/10/27 03:20:59;;;;;;;;;;;12.40;99.90;;;;;;5110123;27;20070;-85
2023/10/27 03:23:28;;;;;;;;;;;12.50;99.90;;;;;;5121795;27;20028;-85
2023/10/27 03:25:55;;;;;;;;;;;12.40;99.90;;;;;;5115162;27;20517;-84
2023/10/27 03:28:22;;;;;;;;;;;12.40;99.90;;;;;;5118631;27;19978;-85
2023/10/27 03:30:49;;;;;;;;;;;12.40;99.90;;;;;;5117809;27;20561;-86
2023/10/27 03:33:16;;;;;;;;;;;12.40;99.90;;;;;;5117080;27;19993;-85
2023/10/27 03:35:43;;;;;;;;;;;12.40;99.90;;;;;;5114222;27;19981;-85
2023/10/27 03:38:10;;;;;;;;;;;12.40;99.90;;;;;;5118720;27;19978;-87
2023/10/27 03:40:38;;;;;;;;;;;12.40;99.90;;;;;;5102524;27;20065;-85
2023/10/27 03:43:06;;;;;;;;;;;12.40;99.90;;;;;;5114632;28;20044;-86
2023/10/27 03:45:34;;;;;;;;;;;12.40;99.90;;;;;;5120644;27;19998;-84
2023/10/27 03:48:00;;;;;;;;;;;12.30;99.90;;;;;;5112683;27;20458;-84
2023/10/27 03:50:27;;;;;;;;;;;12.40;99.90;;;;;;5123419;27;19983;-84
2023/10/27 03:52:54;;;;;;;;;;;12.30;99.90;;;;;;5119494;27;19998;-85
2023/10/27 03:55:20;;;;;;;;;;;12.30;99.90;;;;;;5119735;27;19986;-85
2023/10/27 03:57:48;;;;;;;;;;;12.30;99.90;;;;;;5118511;27;19975;-85
2023/10/27 04:00:16;;;;;;;;;;;12.30;99.90;;;;;;5123770;27;20628;-85
2023/10/27 04:02:43;;;;;;;;;;;12.30;99.90;;;;;;5106957;28;20282;-84
2023/10/27 04:05:10;;;;;;;;;;;12.30;99.90;;;;;;5124067;27;20086;-85
2023/10/27 04:07:36;;;;;;;;;;;12.30;99.90;;;;;;5126236;27;19978;-86
2023/10/27 04:10:03;;;;;;;;;;;12.30;99.90;;;;;;5124749;27;20013;-85
2023/10/27 04:12:30;;;;;;;;;;;12.30;99.90;;;;;;5124603;27;20344;-84
2023/10/27 04:14:59;;;;;;;;;;;12.20;99.90;;;;;;5122286;27;20077;-84
2023/10/27 04:17:26;;;;;;;;;;;12.30;99.90;;;;;;5122968;27;20029;-85
2023/10/27 04:19:52;;;;;;;;;;;12.30;99.90;;;;;;5119891;27;19982;-85
2023/10/27 04:22:19;;;;;;;;;;;12.30;99.90;;;;;;5125218;27;20005;-84
2023/10/27 04:24:46;;;;;;;;;;;12.30;99.90;;;;;;5118285;27;19986;-85
2023/10/27 04:27:12;;;;;;;;;;;12.30;99.90;;;;;;5123224;27;20688;-85
2023/10/27 04:29:40;;;;;;;;;;;12.30;99.90;;;;;;5120250;27;20066;-84
2023/10/27 04:32:08;;;;;;;;;;;12.20;99.90;;;;;;5116157;27;20032;-83
2023/10/27 04:34:35;;;;;;;;;;;12.20;99.90;;;;;;5124691;27;20601;-84
2023/10/27 04:37:01;;;;;;;;;;;12.30;99.90;;;;;;5125561;27;20051;-84
2023/10/27 04:39:28;;;;;;;;;;;12.30;99.90;;;;;;5126282;27;19979;-85
2023/10/27 04:41:55;;;;;;;;;;;12.30;99.90;;;;;;5120722;27;20522;-85
2023/10/27 04:44:23;;;;;;;;;;;12.30;99.90;;;;;;5122365;27;19994;-84
2023/10/27 04:46:50;;;;;;;;;;;12.20;99.90;;;;;;5126364;27;19994;-84
2023/10/27 04:49:18;;;;;;;;;;;12.20;99.90;;;;;;5120215;27;19982;-85
2023/10/27 04:51:45;;;;;;;;;;;12.20;99.90;;;;;;5121479;27;20712;-84
2023/10/27 04:54:12;;;;;;;;;;;12.20;99.90;;;;;;5124358;27;20084;-84
2023/10/27 04:56:38;;;;;;;;;;;12.20;99.90;;;;;;5117645;27;19994;-84
2023/10/27 04:59:05;;;;;;;;;;;12.20;99.90;;;;;;5123716;27;19979;-84
2023/10/27 05:01:31;;;;;;;;;;;12.10;99.90;;;;;;5120162;27;19994;-85
2023/10/27 05:03:58;;;;;;;;;;;12.20;99.90;;;;;;5115632;27;19990;-85
2023/10/27 05:06:26;;;;;;;;;;;12.20;99.90;;;;;;5118648;27;20303;-85
2023/10/27 05:08:53;;;;;;;;;;;12.10;99.90;;;;;;5114790;27;19985;-83
2023/10/27 05:11:19;;;;;;;;;;;12.20;99.90;;;;;;5118931;27;20493;-85
2023/10/27 05:13:46;;;;;;;;;;;12.10;99.90;;;;;;5111768;27;20021;-85
2023/10/27 05:16:13;;;;;;;;;;;12.20;99.90;;;;;;5112588;27;20050;-87
2023/10/27 05:18:39;;;;;;;;;;;12.10;99.90;;;;;;5117156;27;19978;-87
2023/10/27 05:21:07;;;;;;;;;;;12.20;99.90;;;;;;5120092;27;20503;-86
2023/10/27 05:23:35;;;;;;;;;;;12.10;99.90;;;;;;5113420;27;20041;-84
2023/10/27 05:26:01;;;;;;;;;;;12.20;99.90;;;;;;5114353;27;19990;-85
2023/10/27 05:28:28;;;;;;;;;;;12.10;99.90;;;;;;5116824;27;19978;-81
2023/10/27 05:30:55;;;;;;;;;;;12.10;99.90;;;;;;5111284;27;20517;-84
2023/10/27 05:33:21;;;;;;;;;;;12.10;99.90;;;;;;5117430;27;19978;-83
2023/10/27 05:35:48;;;;;;;;;;;12.00;99.90;;;;;;5115825;27;19974;-82
2023/10/27 05:38:15;;;;;;;;;;;12.10;99.90;;;;;;5117204;27;19979;-83
2023/10/27 05:40:43;;;;;;;;;;;12.10;99.90;;;;;;5110861;27;19982;-82
2023/10/27 05:43:11;;;;;;;;;;;12.10;99.90;;;;;;5113723;27;19995;-82
2023/10/27 05:45:38;;;;;;;;;;;12.10;99.90;;;;;;5110258;27;20005;-83
2023/10/27 05:48:05;;;;;;;;;;;12.10;99.90;;;;;;5114148;27;19978;-85
2023/10/27 05:50:32;;;;;;;;;;;12.10;99.90;;;;;;5117631;27;19982;-82
2023/10/27 05:52:58;;;;;;;;;;;12.00;99.90;;;;;;5111467;27;20416;-83
2023/10/27 05:55:25;;;;;;;;;;;12.10;99.90;;;;;;5113311;27;20216;-81
2023/10/27 05:57:53;;;;;;;;;;;12.10;99.90;;;;;;5109979;27;20360;-83
2023/10/27 06:00:21;;;;;;;;;;;12.00;99.90;;;;;;5117710;27;19986;-82
2023/10/27 06:02:48;;;;;;;;;;;12.10;99.90;;;;;;5112372;27;19991;-83
2023/10/27 06:05:15;;;;;;;;;;;12.10;99.90;;;;;;5115880;27;20281;-82
2023/10/27 06:07:41;;;;;;;;;;;12.00;99.90;;;;;;5120675;27;20358;-83
2023/10/27 06:10:09;;;;;;;;;;;12.10;99.90;;;;;;5116639;27;20069;-81
2023/10/27 06:12:35;;;;;;;;;;;12.10;99.90;;;;;;5116987;27;19998;-80
2023/10/27 06:15:04;;;;;;;;;;;12.00;99.90;;;;;;5105963;27;20077;-83
2023/10/27 06:17:30;;;;;;;;;;;12.00;99.90;;;;;;5115339;27;20033;-82
2023/10/27 06:19:57;;;;;;;;;;;12.00;99.90;;;;;;5114045;27;19982;-80
2023/10/27 06:22:23;;;;;;;;;;;12.00;99.90;;;;;;5114050;27;19994;-83
2023/10/27 06:24:50;;;;;;;;;;;12.00;99.90;;;;;;5114426;27;20446;-80
2023/10/27 06:27:17;;;;;;;;;;;12.00;99.90;;;;;;5110497;27;19999;-81
2023/10/27 06:29:43;;;;;;;;;;;12.00;99.90;;;;;;5112633;27;20247;-81
2023/10/27 06:32:11;;;;;;;;;;;12.00;99.90;;;;;;5117900;27;19998;-79
2023/10/27 06:34:38;;;;;;;;;;;11.90;99.90;;;;;;5109529;27;20066;-79
2023/10/27 06:37:05;;;;;;;;;;;11.90;99.90;;;;;;5111013;27;19975;-78
2023/10/27 06:39:32;;;;;;;;;;;11.90;99.90;;;;;;5113554;27;19970;-78
2023/10/27 06:41:58;;;;;;;;;;;11.90;99.90;;;;;;5114029;27;19995;-79
2023/10/27 06:44:25;;;;;;;;;;;11.90;99.90;;;;;;5116082;27;20013;-79
2023/10/27 06:46:53;;;;;;;;;;;11.90;99.90;;;;;;5114692;27;20101;-78
2023/10/27 06:49:21;;;;;;;;;;;11.90;99.90;;;;;;5116289;27;19975;-78
2023/10/27 06:51:48;;;;;;;;;;;11.80;99.90;;;;;;5118981;27;20516;-78
2023/10/27 06:54:15;;;;;;;;;;;11.90;99.90;;;;;;5121526;27;19990;-79
2023/10/27 06:56:42;;;;;;;;;;;11.90;99.90;;;;;;5115713;27;19974;-77
2023/10/27 06:59:09;;;;;;;;;;;11.90;99.90;;;;;;5110646;27;20690;-78
2023/10/27 07:01:36;;;;;;;;;;;11.90;99.90;;;;;;5112463;27;19990;-78
2023/10/27 07:04:03;;;;;;;;;;;11.80;99.90;;;;;;5113373;27;19990;-78
2023/10/27 07:06:31;;;;;;;;;;;11.80;99.90;;;;;;5112365;27;20485;-80
2023/10/27 07:08:58;;;;;;;;;;;11.80;99.90;;;;;;5107355;27;19987;-78
2023/10/27 07:11:24;;;;;;;;;;;11.80;99.90;;;;;;5109726;27;19981;-78
2023/10/27 07:13:51;;;;;;;;;;;11.80;99.90;;;;;;5111263;27;20278;-79
2023/10/27 07:16:18;;;;;;;;;;;11.80;99.90;;;;;;5113800;27;19990;-77
2023/10/27 07:18:44;;;;;;;;;;;11.80;99.90;;;;;;5111528;27;19978;-77
2023/10/27 07:21:12;;;;;;;;;;;11.80;99.90;;;;;;5109358;27;19986;-78
2023/10/27 07:23:40;;;;;;;;;;;11.80;99.90;;;;;;5117145;27;20001;-77
2023/10/27 07:26:13;;;;;;;;;;;11.80;99.90;;;;;;5111169;27;20304;-77
2023/10/27 07:28:41;;;;;;;;;;;11.80;99.90;;;;;;5113910;27;19984;-78
2023/10/27 07:31:08;;;;;;;;;;;11.80;99.90;;;;;;5115235;27;19997;-77
2023/10/27 07:33:35;;;;;;;;;;;11.80;99.90;;;;;;5112492;27;19990;-77
2023/10/27 07:36:02;;;;;;;;;;;11.80;99.90;;;;;;5117265;27;20453;-77
2023/10/27 07:38:30;;;;;;;;;;;11.80;99.90;;;;;;5112576;27;20288;-75
2023/10/27 07:40:58;;;;;;;;;;;11.80;99.90;;;;;;5112438;27;20123;-78
2023/10/27 07:43:25;;;;;;;;;;;11.80;99.90;;;;;;5115769;27;20355;-76
2023/10/27 07:45:54;;;;;;;;;;;11.80;99.90;;;;;;5115515;27;19990;-76
2023/10/27 07:48:20;;;;;;;;;;;11.80;99.90;;;;;;5116319;27;20005;-87
2023/10/27 07:50:47;;;;;;;;;;;11.80;99.90;;;;;;5118484;27;20073;-87
2023/10/27 07:53:14;;;;;;;;;;;11.80;99.90;;;;;;5118437;27;19990;-86
2023/10/27 07:55:40;;;;;;;;;;;11.80;99.90;;;;;;5117805;27;20599;-82
2023/10/27 07:58:08;;;;;;;;;;;11.80;99.90;;;;;;5118599;27;19978;-86
2023/10/27 08:00:35;;;;;;;;;;;11.80;99.90;;;;;;5118019;27;19994;-80
2023/10/27 08:03:02;;;;;;;;;;;11.80;99.90;;;;;;5119368;27;20374;-80
2023/10/27 08:05:29;;;;;;;;;;;11.80;99.90;;;;;;5117375;27;20347;-84
2023/10/27 08:07:56;;;;;;;;;;;11.80;99.90;;;;;;5118897;27;21078;-82
2023/10/27 08:10:24;;;;;;;;;;;11.90;99.90;;;;;;5117024;27;20065;-79
2023/10/27 08:12:51;;;;;;;;;;;11.90;99.90;;;;;;5118318;27;20389;-85
2023/10/27 08:15:19;;;;;;;;;;;11.90;99.90;;;;;;5120453;27;19982;-82
2023/10/27 08:17:46;;;;;;;;;;;11.90;99.90;;;;;;5120064;27;20004;-83
2023/10/27 08:20:12;;;;;;;;;;;11.90;99.90;;;;;;5116219;27;20042;-84
2023/10/27 08:22:39;;;;;;;;;;;11.90;99.90;;;;;;5113004;27;20474;-83
2023/10/27 08:25:06;;;;;;;;;;;11.90;99.90;;;;;;5116492;27;20278;-83
2023/10/27 08:27:32;;;;;;;;;;;11.90;99.90;;;;;;5118574;27;19991;-82
2023/10/27 08:29:59;;;;;;;;;;;11.90;99.90;;;;;;5118412;27;20004;-83
2023/10/27 08:32:27;;;;;;;;;;;12.00;99.90;;;;;;5116743;27;19998;-81
2023/10/27 08:34:54;;;;;;;;;;;11.90;99.90;;;;;;5116696;27;19979;-82
2023/10/27 08:37:21;;;;;;;;;;;11.90;99.90;;;;;;5116675;27;20009;-84
2023/10/27 08:39:47;;;;;;;;;;;12.00;99.90;;;;;;5112710;27;20229;-82
2023/10/27 08:42:14;;;;;;;;;;;11.90;99.90;;;;;;5114946;27;20466;-83
2023/10/27 08:44:41;;;;;;;;;;;12.00;99.90;;;;;;5117283;27;19979;-82
2023/10/27 08:47:08;;;;;;;;;;;11.90;99.90;;;;;;5116345;27;20162;-81
2023/10/27 08:49:36;;;;;;;;;;;12.00;99.90;;;;;;5116463;27;20002;-83
2023/10/27 08:52:02;;;;;;;;;;;12.00;99.90;;;;;;5117396;27;20018;-86
2023/10/27 08:54:29;;;;;;;;;;;12.00;99.90;;;;;;5116396;27;19985;-83
2023/10/27 08:56:56;;;;;;;;;;;12.00;99.90;;;;;;5116054;27;20506;-85
2023/10/27 08:59:23;;;;;;;;;;;12.00;99.90;;;;;;5117662;27;20045;-83
2023/10/27 09:01:50;;;;;;;;;;;12.00;99.90;;;;;;5112526;27;20039;-86
2023/10/27 09:04:19;;;;;;;;;;;12.00;99.90;;;;;;5113834;27;19979;-83
2023/10/27 09:06:47;;;;;;;;;;;12.00;99.90;;;;;;5116224;27;19995;-87
2023/10/27 09:09:14;;;;;;;;;;;12.00;99.90;;;;;;5109958;27;20007;-80
2023/10/27 09:11:43;;;;;;;;;;;12.00;99.90;;;;;;5113103;27;19979;-84
2023/10/27 09:14:19;;;;;;;;;;;12.00;99.90;;;;;;5110029;27;20810;-82
2023/10/27 09:16:46;;;;;;;;;;;12.10;99.90;;;;;;5113926;27;19994;-82
2023/10/27 09:19:25;;;;;;;;;;;12.00;99.90;;;;;;5111510;27;20005;-81
2023/10/27 09:21:53;;;;;;;;;;;12.10;99.90;;;;;;5119931;27;20005;-82
2023/10/27 09:24:24;;;;;;;;;;;12.00;99.90;;;;;;5116317;27;20226;-83
2023/10/27 09:26:51;;;;;;;;;;;12.10;99.90;;;;;;5114034;27;20537;-82
2023/10/27 09:29:18;;;;;;;;;;;12.00;99.90;;;;;;5114926;27;19986;-83
2023/10/27 09:31:44;;;;;;;;;;;12.00;99.90;;;;;;5115071;27;20001;-83
2023/10/27 09:34:19;;;;;;;;;;;12.10;99.90;;;;;;5121305;27;19974;-84
2023/10/27 09:36:47;;;;;;;;;;;12.10;99.90;;;;;;5117289;27;20106;-83
2023/10/27 09:39:20;;;;;;;;;;;12.10;99.90;;;;;;5122052;27;20624;-83
2023/10/27 09:41:48;;;;;;;;;;;12.10;99.90;;;;;;5116832;27;20180;-83
2023/10/27 09:44:15;;;;;;;;;;;12.10;99.90;;;;;;5117219;27;21460;-84
2023/10/27 09:46:45;;;;;;;;;;;12.20;99.90;;;;;;5115936;27;20051;-84
2023/10/27 09:49:13;;;;;;;;;;;12.20;99.90;;;;;;5115427;27;20002;-83
2023/10/27 09:51:41;;;;;;;;;;;12.20;99.90;;;;;;5115601;27;20138;-82
2023/10/27 09:54:08;;;;;;;;;;;12.20;99.90;;;;;;5119096;27;19979;-83
2023/10/27 09:56:36;;;;;;;;;;;12.20;99.90;;;;;;5111776;27;19981;-83
2023/10/27 09:59:04;;;;;;;;;;;12.30;99.90;;;;;;5112647;27;19978;-83
2023/10/27 10:01:30;;;;;;;;;;;12.20;99.90;;;;;;5113520;27;20018;-82
2023/10/27 10:03:58;;;;;;;;;;;12.30;99.90;;;;;;5113716;27;20065;-83
2023/10/27 10:06:24;;;;;;;;;;;12.30;99.90;;;;;;5111102;27;19974;-83
2023/10/27 10:09:08;;;;;;;;;;;12.30;99.90;;;;;;5116130;27;20512;-83
2023/10/27 10:11:53;;;;;;;;;;;12.30;99.90;;;;;;5115336;27;19970;-83
2023/10/27 10:14:35;;;;;;;;;;;12.30;99.90;;;;;;5114182;27;19975;-82
2023/10/27 10:17:01;;;;;;;;;;;12.30;99.90;;;;;;5111464;27;20041;-82
2023/10/27 10:19:47;;;;;;;;;;;12.30;99.90;;;;;;5120212;27;20478;-83
2023/10/27 10:22:41;;;;;;;;;;;12.30;99.90;;;;;;5117000;27;19990;-82
2023/10/27 10:25:26;;;;;;;;;;;12.30;99.90;;;;;;5112242;27;20556;-82
2023/10/27 10:28:11;;;;;;;;;;;12.30;99.90;;;;;;5121601;27;20005;-82
2023/10/27 10:30:40;;;;;;;;;;;12.30;99.90;;;;;;5110831;27;20602;-83
2023/10/27 10:33:19;;;;;;;;;;;12.40;99.90;;;;;;5112237;27;20341;-82
2023/10/27 10:35:46;;;;;;;;;;;12.40;99.90;;;;;;5112350;27;19974;-82
2023/10/27 10:38:31;;;;;;;;;;;12.50;99.90;;;;;;5114416;27;20069;-82
2023/10/27 10:40:59;;;;;;;;;;;12.50;99.90;;;;;;5117428;27;19982;-83
2023/10/27 10:43:27;;;;;;;;;;;12.50;99.90;;;;;;5114191;27;19990;-83
2023/10/27 10:45:56;;;;;;;;;;;12.60;99.90;;;;;;5115536;27;19994;-79
2023/10/27 10:48:24;;;;;;;;;;;12.60;99.90;;;;;;5116262;27;20450;-82
2023/10/27 10:50:51;;;;;;;;;;;12.60;99.90;;;;;;5113881;27;20070;-82
2023/10/27 10:53:19;;;;;;;;;;;12.70;99.90;;;;;;5110840;27;19994;-83
2023/10/27 10:55:46;;;;;;;;;;;12.80;99.90;;;;;;5115060;27;20019;-82
2023/10/27 10:58:20;;;;;;;;;;;12.80;99.90;;;;;;5114670;27;20031;-82
2023/10/27 11:00:48;;;;;;;;;;;12.80;99.90;;;;;;5113808;27;20033;-83
2023/10/27 11:03:16;;;;;;;;;;;12.80;99.90;;;;;;5112052;27;20101;-81
2023/10/27 11:05:43;;;;;;;;;;;12.90;99.90;;;;;;5111575;27;19989;-82
2023/10/27 11:08:10;;;;;;;;;;;13.00;99.90;;;;;;5109410;27;20102;-83
2023/10/27 11:10:36;;;;;;;;;;;13.00;99.90;;;;;;5117094;27;19974;-83
2023/10/27 11:13:04;;;;;;;;;;;13.00;99.90;;;;;;5115460;27;19991;-83
2023/10/27 11:15:40;;;;;;;;;;;13.10;99.90;;;;;;5116329;27;20597;-82
2023/10/27 11:18:07;;;;;;;;;;;13.00;99.90;;;;;;5111732;27;19974;-83
2023/10/27 11:20:39;;;;;;;;;;;13.00;99.90;;;;;;5115761;27;20572;-82
2023/10/27 11:23:09;;;;;;;;;;;13.00;99.90;;;;;;5111345;27;20001;-82
2023/10/27 11:25:36;;;;;;;;;;;13.00;99.90;;;;;;5118716;27;19974;-82
2023/10/27 11:28:21;;;;;;;;;;;13.00;99.90;;;;;;5114059;27;20001;-83
2023/10/27 11:31:01;;;;;;;;;;;13.00;99.90;;;;;;5119828;27;20585;-83
2023/10/27 11:33:28;;;;;;;;;;;13.00;99.90;;;;;;5116841;27;19998;-83
2023/10/27 11:35:58;;;;;;;;;;;13.00;99.90;;;;;;5111150;27;19982;-84
2023/10/27 11:38:30;;;;;;;;;;;13.00;99.90;;;;;;5116793;27;19987;-83
2023/10/27 11:41:08;;;;;;;;;;;13.00;99.90;;;;;;5116123;27;19985;-83
2023/10/27 11:43:35;;;;;;;;;;;13.00;99.90;;;;;;5115218;27;19990;-84
2023/10/27 11:46:08;;;;;;;;;;;13.00;99.90;;;;;;5110775;27;19998;-81
2023/10/27 11:48:35;;;;;;;;;;;13.00;99.90;;;;;;5112008;27;20014;-84
2023/10/27 11:51:04;;;;;;;;;;;13.00;99.90;;;;;;5110430;27;19986;-84
2023/10/27 11:53:31;;;;;;;;;;;12.90;99.90;;;;;;5113475;27;19990;-82
2023/10/27 11:55:59;;;;;;;;;;;12.90;99.90;;;;;;5113426;27;20085;-83
2023/10/27 11:58:26;;;;;;;;;;;12.90;99.90;;;;;;5113855;27;20380;-84
2023/10/27 12:00:52;;;;;;;;;;;12.90;99.90;;;;;;5109765;27;20672;-83
2023/10/27 12:03:19;;;;;;;;;;;12.90;99.90;;;;;;5108634;27;20005;-82
2023/10/27 12:05:46;;;;;;;;;;;12.90;99.90;;;;;;5110212;27;19981;-83
2023/10/27 12:08:14;;;;;;;;;;;12.90;99.90;;;;;;5114391;27;19998;-82
2023/10/27 12:10:40;;;;;;;;;;;12.90;99.90;;;;;;5096744;28;19986;-83
2023/10/27 12:13:07;;;;;;;;;;;12.90;99.90;;;;;;5109542;27;20090;-83
2023/10/27 12:15:34;;;;;;;;;;;12.90;99.90;;;;;;5111237;27;20017;-83
2023/10/27 12:18:03;;;;;;;;;;;12.90;99.90;;;;;;5113039;27;20022;-83
2023/10/27 12:20:30;;;;;;;;;;;12.90;99.90;;;;;;5115698;27;19986;-82
2023/10/27 12:22:57;;;;;;;;;;;12.90;99.90;;;;;;5117718;27;19994;-79
2023/10/27 12:25:24;;;;;;;;;;;12.90;99.90;;;;;;5110431;27;19982;-83
2023/10/27 12:27:51;;;;;;;;;;;12.90;99.90;;;;;;5119357;27;20478;-84
2023/10/27 12:30:23;;;;;;;;;;;12.90;99.90;;;;;;5115975;27;19974;-83
2023/10/27 12:32:50;;;;;;;;;;;12.90;99.90;;;;;;5116888;27;20028;-84
2023/10/27 12:35:17;;;;;;;;;;;13.00;99.90;;;;;;5114137;27;20057;-83
2023/10/27 12:37:43;;;;;;;;;;;13.00;99.90;;;;;;5121112;27;20442;-84
2023/10/27 12:40:11;;;;;;;;;;;13.00;99.90;;;;;;5116590;27;20011;-83
2023/10/27 12:42:39;;;;;;;;;;;13.00;99.90;;;;;;5114261;27;19991;-84
2023/10/27 12:45:06;;;;;;;;;;;13.10;99.90;;;;;;5114108;27;20425;-84
2023/10/27 12:47:32;;;;;;;;;;;13.10;99.90;;;;;;5113737;27;20399;-85
2023/10/27 12:49:59;;;;;;;;;;;13.10;99.90;;;;;;5118415;27;20030;-85
2023/10/27 12:52:27;;;;;;;;;;;13.10;99.90;;;;;;5117171;27;19990;-86
2023/10/27 12:54:53;;;;;;;;;;;13.10;99.90;;;;;;5117927;27;20014;-81
2023/10/27 12:57:20;;;;;;;;;;;13.10;99.90;;;;;;5121201;27;19971;-81
2023/10/27 12:59:49;;;;;;;;;;;13.10;99.90;;;;;;5124068;27;19974;-81
2023/10/27 13:02:16;;;;;;;;;;;13.10;99.90;;;;;;5117994;27;19998;-81
2023/10/27 13:04:42;;;;;;;;;;;13.10;99.90;;;;;;5119068;27;20442;-81
2023/10/27 13:07:09;;;;;;;;;;;13.10;99.90;;;;;;5114145;27;20018;-81
2023/10/27 13:09:36;;;;;;;;;;;13.10;99.90;;;;;;5120661;27;19994;-81
2023/10/27 13:12:05;;;;;;;;;;;13.10;99.90;;;;;;5124417;27;19994;-80
2023/10/27 13:14:34;;;;;;;;;;;13.10;99.90;;;;;;5119957;27;20742;-81
2023/10/27 13:17:02;;;;;;;;;;;13.00;99.90;;;;;;5118249;27;20102;-81
2023/10/27 13:19:29;;;;;;;;;;;13.10;99.90;;;;;;5119821;27;19974;-81
2023/10/27 13:21:56;;;;;;;;;;;13.00;99.90;;;;;;5124350;27;20095;-82
2023/10/27 13:24:23;;;;;;;;;;;13.10;99.90;;;;;;5122468;27;19979;-81
2023/10/27 13:26:50;;;;;;;;;;;13.10;99.90;;;;;;5114640;27;20014;-81
2023/10/27 13:29:17;;;;;;;;;;;13.10;99.90;;;;;;5120725;27;20309;-81
2023/10/27 13:31:45;;;;;;;;;;;13.10;99.90;;;;;;5122018;27;19981;-81
2023/10/27 13:34:13;;;;;;;;;;;13.10;99.90;;;;;;5118565;27;20456;-84
2023/10/27 13:36:40;;;;;;;;;;;13.10;99.90;;;;;;5122210;27;19974;-85
2023/10/27 13:39:07;;;;;;;;;;;13.10;99.90;;;;;;5116280;27;19979;-84
2023/10/27 13:41:35;;;;;;;;;;;13.20;99.90;;;;;;5122640;27;19978;-85
2023/10/27 13:44:02;;;;;;;;;;;13.20;99.90;;;;;;5120006;27;19979;-85
2023/10/27 13:46:30;;;;;;;;;;;13.20;99.90;;;;;;5120816;27;20056;-82
2023/10/27 13:48:57;;;;;;;;;;;13.30;99.90;;;;;;5116832;27;20183;-84
2023/10/27 13:51:25;;;;;;;;;;;13.30;99.90;;;;;;5120453;27;20057;-84
2023/10/27 13:53:52;;;;;;;;;;;13.30;99.90;;;;;;5116493;27;19986;-84
2023/10/27 13:56:19;;;;;;;;;;;13.30;99.90;;;;;;5112664;27;19978;-85
2023/10/27 13:58:45;;;;;;;;;;;13.40;99.90;;;;;;5117781;27;19977;-86
2023/10/27 14:01:12;;;;;;;;;;;13.30;99.90;;;;;;5118031;27;20002;-85
2023/10/27 14:03:39;;;;;;;;;;;13.40;99.90;;;;;;5121813;27;20105;-86
2023/10/27 14:06:07;;;;;;;;;;;13.50;99.90;;;;;;5116076;27;20451;-87
2023/10/27 14:08:35;;;;;;;;;;;13.50;99.90;;;;;;5130296;27;20081;-86
2023/10/27 14:11:05;;;;;;;;;;;13.50;99.90;;;;;;5118622;27;20085;-85
2023/10/27 14:13:32;;;;;;;;;;;13.50;99.90;;;;;;5113793;27;20615;-87
2023/10/27 14:15:59;;;;;;;;;;;13.50;99.90;;;;;;5117414;27;20017;-87
2023/10/27 14:18:27;;;;;;;;;;;13.50;99.90;;;;;;5113641;27;20069;-87